sensor_id;sensor_type;location;lat;lon;timestamp;P1;durP1;ratioP1;P2;durP2;ratioP2
42338;SDS011;27993;45.392;10.918;2022-12-07T00:02:03;27.05;;;8.32;;
42338;SDS011;27993;45.392;10.918;2022-12-07T00:04:34;26.10;;;9.80;;
42338;SDS011;27993;45.392;10.918;2022-12-07T00:07:05;23.08;;;8.85;;
42338;SDS011;27993;45.392;10.918;2022-12-07T00:09:35;29.73;;;8.48;;
42338;SDS011;27993;45.392;10.918;2022-12-07T00:12:06;16.27;;;8.65;;
42338;SDS011;27993;45.392;10.918;2022-12-07T00:14:37;24.40;;;9.18;;
42338;SDS011;27993;45.392;10.918;2022-12-07T00:17:07;21.23;;;9.13;;
42338;SDS011;27993;45.392;10.918;2022-12-07T00:19:38;39.65;;;9.90;;
42338;SDS011;27993;45.392;10.918;2022-12-07T00:22:08;15.63;;;9.07;;
42338;SDS011;27993;45.392;10.918;2022-12-07T00:24:39;27.00;;;9.00;;
42338;SDS011;27993;45.392;10.918;2022-12-07T00:27:09;22.37;;;9.02;;
42338;SDS011;27993;45.392;10.918;2022-12-07T00:29:40;27.83;;;10.05;;
42338;SDS011;27993;45.392;10.918;2022-12-07T00:32:10;18.42;;;8.63;;
42338;SDS011;27993;45.392;10.918;2022-12-07T00:34:41;12.65;;;7.25;;
42338;SDS011;27993;45.392;10.918;2022-12-07T00:37:12;13.85;;;8.30;;
42338;SDS011;27993;45.392;10.918;2022-12-07T00:39:42;22.83;;;9.18;;
42338;SDS011;27993;45.392;10.918;2022-12-07T00:42:13;15.93;;;7.95;;
42338;SDS011;27993;45.392;10.918;2022-12-07T00:44:44;18.33;;;8.88;;
42338;SDS011;27993;45.392;10.918;2022-12-07T00:47:14;16.90;;;7.75;;
42338;SDS011;27993;45.392;10.918;2022-12-07T00:49:45;19.70;;;7.95;;
42338;SDS011;27993;45.392;10.918;2022-12-07T00:52:15;25.90;;;8.40;;
42338;SDS011;27993;45.392;10.918;2022-12-07T00:54:46;16.90;;;8.85;;
42338;SDS011;27993;45.392;10.918;2022-12-07T00:57:17;20.00;;;7.57;;
42338;SDS011;27993;45.392;10.918;2022-12-07T00:59:47;14.68;;;8.20;;
42338;SDS011;27993;45.392;10.918;2022-12-07T01:02:18;15.73;;;8.00;;
42338;SDS011;27993;45.392;10.918;2022-12-07T01:04:49;18.08;;;7.55;;
42338;SDS011;27993;45.392;10.918;2022-12-07T01:07:20;14.10;;;8.52;;
42338;SDS011;27993;45.392;10.918;2022-12-07T01:09:50;12.37;;;8.02;;
42338;SDS011;27993;45.392;10.918;2022-12-07T01:12:21;11.85;;;7.07;;
42338;SDS011;27993;45.392;10.918;2022-12-07T01:14:51;14.05;;;6.80;;
42338;SDS011;27993;45.392;10.918;2022-12-07T01:17:22;23.38;;;8.68;;
42338;SDS011;27993;45.392;10.918;2022-12-07T01:19:52;13.60;;;6.70;;
42338;SDS011;27993;45.392;10.918;2022-12-07T01:22:23;19.67;;;7.10;;
42338;SDS011;27993;45.392;10.918;2022-12-07T01:24:54;14.68;;;7.47;;
42338;SDS011;27993;45.392;10.918;2022-12-07T01:27:24;12.07;;;7.62;;
42338;SDS011;27993;45.392;10.918;2022-12-07T01:29:55;14.48;;;7.37;;
42338;SDS011;27993;45.392;10.918;2022-12-07T01:32:26;25.73;;;8.68;;
42338;SDS011;27993;45.392;10.918;2022-12-07T01:34:56;12.50;;;7.50;;
42338;SDS011;27993;45.392;10.918;2022-12-07T01:37:27;22.05;;;8.18;;
42338;SDS011;27993;45.392;10.918;2022-12-07T01:39:57;9.27;;;5.40;;
42338;SDS011;27993;45.392;10.918;2022-12-07T01:42:28;20.77;;;6.75;;
42338;SDS011;27993;45.392;10.918;2022-12-07T01:47:52;28.58;;;7.03;;
42338;SDS011;27993;45.392;10.918;2022-12-07T01:50:26;21.23;;;6.22;;
42338;SDS011;27993;45.392;10.918;2022-12-07T01:53:02;41.05;;;6.82;;
42338;SDS011;27993;45.392;10.918;2022-12-07T01:55:37;16.05;;;6.62;;
42338;SDS011;27993;45.392;10.918;2022-12-07T01:58:11;24.60;;;5.70;;
42338;SDS011;27993;45.392;10.918;2022-12-07T02:00:42;7.47;;;5.30;;
42338;SDS011;27993;45.392;10.918;2022-12-07T02:03:21;26.35;;;7.22;;
42338;SDS011;27993;45.392;10.918;2022-12-07T02:06:02;12.18;;;6.22;;
42338;SDS011;27993;45.392;10.918;2022-12-07T02:08:34;11.45;;;6.32;;
42338;SDS011;27993;45.392;10.918;2022-12-07T02:11:05;21.83;;;6.73;;
42338;SDS011;27993;45.392;10.918;2022-12-07T02:13:38;38.78;;;5.95;;
42338;SDS011;27993;45.392;10.918;2022-12-07T02:21:54;22.17;;;5.80;;
42338;SDS011;27993;45.392;10.918;2022-12-07T02:27:27;17.48;;;7.00;;
42338;SDS011;27993;45.392;10.918;2022-12-07T02:30:19;16.23;;;6.40;;
42338;SDS011;27993;45.392;10.918;2022-12-07T02:38:26;25.60;;;7.15;;
42338;SDS011;27993;45.392;10.918;2022-12-07T02:41:13;10.60;;;6.62;;
42338;SDS011;27993;45.392;10.918;2022-12-07T02:43:53;20.90;;;6.45;;
42338;SDS011;27993;45.392;10.918;2022-12-07T02:46:28;24.20;;;7.93;;
42338;SDS011;27993;45.392;10.918;2022-12-07T02:49:02;40.08;;;8.57;;
42338;SDS011;27993;45.392;10.918;2022-12-07T02:51:34;18.58;;;6.47;;
42338;SDS011;27993;45.392;10.918;2022-12-07T02:54:15;25.50;;;7.87;;
42338;SDS011;27993;45.392;10.918;2022-12-07T03:10:33;12.65;;;6.93;;
42338;SDS011;27993;45.392;10.918;2022-12-07T03:13:20;16.60;;;7.55;;
42338;SDS011;27993;45.392;10.918;2022-12-07T03:16:02;18.60;;;7.25;;
42338;SDS011;27993;45.392;10.918;2022-12-07T03:18:38;30.88;;;8.80;;
42338;SDS011;27993;45.392;10.918;2022-12-07T03:21:17;28.50;;;7.30;;
42338;SDS011;27993;45.392;10.918;2022-12-07T03:23:56;14.38;;;7.07;;
42338;SDS011;27993;45.392;10.918;2022-12-07T03:26:30;14.07;;;7.82;;
42338;SDS011;27993;45.392;10.918;2022-12-07T03:29:08;12.63;;;7.07;;
42338;SDS011;27993;45.392;10.918;2022-12-07T03:31:47;36.67;;;9.02;;
42338;SDS011;27993;45.392;10.918;2022-12-07T03:34:29;16.98;;;6.55;;
42338;SDS011;27993;45.392;10.918;2022-12-07T03:43:09;23.73;;;6.95;;
42338;SDS011;27993;45.392;10.918;2022-12-07T03:45:42;39.90;;;7.47;;
42338;SDS011;27993;45.392;10.918;2022-12-07T03:48:20;47.95;;;8.48;;
42338;SDS011;27993;45.392;10.918;2022-12-07T03:51:08;15.20;;;8.15;;
42338;SDS011;27993;45.392;10.918;2022-12-07T03:53:46;23.35;;;7.95;;
42338;SDS011;27993;45.392;10.918;2022-12-07T03:56:30;22.60;;;7.85;;
42338;SDS011;27993;45.392;10.918;2022-12-07T03:59:02;45.83;;;8.27;;
42338;SDS011;27993;45.392;10.918;2022-12-07T04:01:33;25.52;;;7.75;;
42338;SDS011;27993;45.392;10.918;2022-12-07T04:04:04;21.85;;;6.87;;
42338;SDS011;27993;45.392;10.918;2022-12-07T04:06:34;26.50;;;8.75;;
42338;SDS011;27993;45.392;10.918;2022-12-07T04:09:05;12.63;;;7.37;;
42338;SDS011;27993;45.392;10.918;2022-12-07T04:11:36;24.58;;;7.65;;
42338;SDS011;27993;45.392;10.918;2022-12-07T04:14:06;23.08;;;8.35;;
42338;SDS011;27993;45.392;10.918;2022-12-07T04:16:50;37.67;;;8.73;;
42338;SDS011;27993;45.392;10.918;2022-12-07T04:19:23;30.33;;;9.27;;
42338;SDS011;27993;45.392;10.918;2022-12-07T04:21:59;14.60;;;7.47;;
42338;SDS011;27993;45.392;10.918;2022-12-07T04:24:30;25.67;;;7.97;;
42338;SDS011;27993;45.392;10.918;2022-12-07T04:27:02;12.63;;;8.02;;
42338;SDS011;27993;45.392;10.918;2022-12-07T04:29:32;14.43;;;8.20;;
42338;SDS011;27993;45.392;10.918;2022-12-07T04:32:03;24.58;;;8.20;;
42338;SDS011;27993;45.392;10.918;2022-12-07T04:34:34;14.13;;;7.60;;
42338;SDS011;27993;45.392;10.918;2022-12-07T04:37:04;18.55;;;8.60;;
42338;SDS011;27993;45.392;10.918;2022-12-07T04:39:35;13.80;;;7.68;;
42338;SDS011;27993;45.392;10.918;2022-12-07T04:42:06;19.90;;;8.13;;
42338;SDS011;27993;45.392;10.918;2022-12-07T04:44:36;13.35;;;7.62;;
42338;SDS011;27993;45.392;10.918;2022-12-07T04:47:07;17.73;;;8.35;;
42338;SDS011;27993;45.392;10.918;2022-12-07T04:49:38;23.80;;;8.75;;
42338;SDS011;27993;45.392;10.918;2022-12-07T04:52:08;18.62;;;8.18;;
42338;SDS011;27993;45.392;10.918;2022-12-07T04:54:39;19.23;;;7.50;;
42338;SDS011;27993;45.392;10.918;2022-12-07T04:57:09;16.08;;;8.07;;
42338;SDS011;27993;45.392;10.918;2022-12-07T04:59:58;12.73;;;7.25;;
42338;SDS011;27993;45.392;10.918;2022-12-07T05:02:29;19.83;;;7.75;;
42338;SDS011;27993;45.392;10.918;2022-12-07T05:05:00;12.55;;;6.35;;
42338;SDS011;27993;45.392;10.918;2022-12-07T05:07:30;12.18;;;8.43;;
42338;SDS011;27993;45.392;10.918;2022-12-07T05:10:01;15.65;;;7.57;;
42338;SDS011;27993;45.392;10.918;2022-12-07T05:12:32;16.90;;;9.20;;
42338;SDS011;27993;45.392;10.918;2022-12-07T05:15:03;19.98;;;9.80;;
42338;SDS011;27993;45.392;10.918;2022-12-07T05:17:34;15.32;;;7.85;;
42338;SDS011;27993;45.392;10.918;2022-12-07T05:20:05;16.37;;;7.62;;
42338;SDS011;27993;45.392;10.918;2022-12-07T05:22:36;27.90;;;7.10;;
42338;SDS011;27993;45.392;10.918;2022-12-07T05:25:07;16.98;;;7.65;;
42338;SDS011;27993;45.392;10.918;2022-12-07T05:27:38;14.68;;;7.22;;
42338;SDS011;27993;45.392;10.918;2022-12-07T05:30:08;13.62;;;8.02;;
42338;SDS011;27993;45.392;10.918;2022-12-07T05:32:39;10.82;;;6.80;;
42338;SDS011;27993;45.392;10.918;2022-12-07T05:35:10;17.05;;;6.72;;
42338;SDS011;27993;45.392;10.918;2022-12-07T05:37:40;10.98;;;6.47;;
42338;SDS011;27993;45.392;10.918;2022-12-07T05:40:11;11.60;;;6.15;;
42338;SDS011;27993;45.392;10.918;2022-12-07T05:42:42;16.75;;;6.78;;
42338;SDS011;27993;45.392;10.918;2022-12-07T05:45:13;11.07;;;5.65;;
42338;SDS011;27993;45.392;10.918;2022-12-07T05:47:44;9.98;;;5.90;;
42338;SDS011;27993;45.392;10.918;2022-12-07T05:50:14;8.68;;;5.57;;
42338;SDS011;27993;45.392;10.918;2022-12-07T05:52:45;12.45;;;6.78;;
42338;SDS011;27993;45.392;10.918;2022-12-07T05:55:15;7.68;;;6.00;;
42338;SDS011;27993;45.392;10.918;2022-12-07T05:57:46;17.67;;;6.07;;
42338;SDS011;27993;45.392;10.918;2022-12-07T06:00:35;9.93;;;5.85;;
42338;SDS011;27993;45.392;10.918;2022-12-07T06:03:06;20.20;;;6.72;;
42338;SDS011;27993;45.392;10.918;2022-12-07T06:05:36;18.10;;;7.03;;
42338;SDS011;27993;45.392;10.918;2022-12-07T06:08:07;26.75;;;7.65;;
42338;SDS011;27993;45.392;10.918;2022-12-07T06:10:37;40.22;;;7.03;;
42338;SDS011;27993;45.392;10.918;2022-12-07T06:13:08;10.52;;;5.90;;
42338;SDS011;27993;45.392;10.918;2022-12-07T06:15:39;9.60;;;6.20;;
42338;SDS011;27993;45.392;10.918;2022-12-07T06:18:10;10.80;;;6.22;;
42338;SDS011;27993;45.392;10.918;2022-12-07T06:20:40;17.10;;;8.90;;
42338;SDS011;27993;45.392;10.918;2022-12-07T06:23:11;27.40;;;10.88;;
42338;SDS011;27993;45.392;10.918;2022-12-07T06:25:44;17.95;;;8.98;;
42338;SDS011;27993;45.392;10.918;2022-12-07T06:28:15;15.57;;;7.95;;
42338;SDS011;27993;45.392;10.918;2022-12-07T06:30:46;18.08;;;8.60;;
42338;SDS011;27993;45.392;10.918;2022-12-07T06:33:17;21.87;;;9.27;;
42338;SDS011;27993;45.392;10.918;2022-12-07T06:35:47;16.02;;;7.18;;
42338;SDS011;27993;45.392;10.918;2022-12-07T06:38:18;29.40;;;12.60;;
42338;SDS011;27993;45.392;10.918;2022-12-07T06:40:48;24.65;;;8.02;;
42338;SDS011;27993;45.392;10.918;2022-12-07T06:43:19;16.60;;;6.00;;
42338;SDS011;27993;45.392;10.918;2022-12-07T06:45:50;12.05;;;7.18;;
42338;SDS011;27993;45.392;10.918;2022-12-07T06:48:20;29.52;;;8.30;;
42338;SDS011;27993;45.392;10.918;2022-12-07T06:50:51;27.15;;;7.35;;
42338;SDS011;27993;45.392;10.918;2022-12-07T06:53:22;23.48;;;7.72;;
42338;SDS011;27993;45.392;10.918;2022-12-07T06:55:52;41.37;;;7.15;;
42338;SDS011;27993;45.392;10.918;2022-12-07T06:58:23;55.88;;;7.47;;
42338;SDS011;27993;45.392;10.918;2022-12-07T07:00:54;15.70;;;5.78;;
42338;SDS011;27993;45.392;10.918;2022-12-07T07:03:25;12.50;;;6.80;;
42338;SDS011;27993;45.392;10.918;2022-12-07T07:05:55;22.75;;;7.05;;
42338;SDS011;27993;45.392;10.918;2022-12-07T07:08:26;13.38;;;7.50;;
42338;SDS011;27993;45.392;10.918;2022-12-07T07:10:56;22.37;;;10.50;;
42338;SDS011;27993;45.392;10.918;2022-12-07T07:13:27;15.05;;;7.68;;
42338;SDS011;27993;45.392;10.918;2022-12-07T07:15:58;11.07;;;7.03;;
42338;SDS011;27993;45.392;10.918;2022-12-07T07:18:29;10.07;;;5.75;;
42338;SDS011;27993;45.392;10.918;2022-12-07T07:20:59;17.85;;;7.28;;
42338;SDS011;27993;45.392;10.918;2022-12-07T07:23:30;16.70;;;7.87;;
42338;SDS011;27993;45.392;10.918;2022-12-07T07:26:01;11.48;;;6.30;;
42338;SDS011;27993;45.392;10.918;2022-12-07T07:28:32;9.88;;;6.37;;
42338;SDS011;27993;45.392;10.918;2022-12-07T07:31:03;13.48;;;6.47;;
42338;SDS011;27993;45.392;10.918;2022-12-07T07:33:33;50.85;;;20.55;;
42338;SDS011;27993;45.392;10.918;2022-12-07T07:36:04;17.87;;;8.48;;
42338;SDS011;27993;45.392;10.918;2022-12-07T07:38:35;43.70;;;19.00;;
42338;SDS011;27993;45.392;10.918;2022-12-07T07:41:06;45.95;;;20.15;;
42338;SDS011;27993;45.392;10.918;2022-12-07T07:43:36;34.60;;;18.85;;
42338;SDS011;27993;45.392;10.918;2022-12-07T07:46:07;22.85;;;12.15;;
42338;SDS011;27993;45.392;10.918;2022-12-07T07:48:37;15.60;;;9.05;;
42338;SDS011;27993;45.392;10.918;2022-12-07T07:51:08;13.77;;;8.05;;
42338;SDS011;27993;45.392;10.918;2022-12-07T07:53:38;18.23;;;8.80;;
42338;SDS011;27993;45.392;10.918;2022-12-07T07:56:09;15.00;;;8.60;;
42338;SDS011;27993;45.392;10.918;2022-12-07T07:58:40;11.98;;;7.70;;
42338;SDS011;27993;45.392;10.918;2022-12-07T08:01:10;18.83;;;8.82;;
42338;SDS011;27993;45.392;10.918;2022-12-07T08:03:43;18.27;;;8.38;;
42338;SDS011;27993;45.392;10.918;2022-12-07T08:06:14;14.48;;;7.43;;
42338;SDS011;27993;45.392;10.918;2022-12-07T08:08:45;21.20;;;10.77;;
42338;SDS011;27993;45.392;10.918;2022-12-07T08:11:16;15.15;;;8.65;;
42338;SDS011;27993;45.392;10.918;2022-12-07T08:13:46;16.65;;;10.18;;
42338;SDS011;27993;45.392;10.918;2022-12-07T08:16:17;14.85;;;9.40;;
42338;SDS011;27993;45.392;10.918;2022-12-07T08:18:48;13.68;;;7.80;;
42338;SDS011;27993;45.392;10.918;2022-12-07T08:21:19;9.00;;;6.45;;
42338;SDS011;27993;45.392;10.918;2022-12-07T08:23:49;12.75;;;7.30;;
42338;SDS011;27993;45.392;10.918;2022-12-07T08:26:20;13.77;;;8.15;;
42338;SDS011;27993;45.392;10.918;2022-12-07T08:28:52;9.02;;;5.90;;
42338;SDS011;27993;45.392;10.918;2022-12-07T08:31:23;9.13;;;6.20;;
42338;SDS011;27993;45.392;10.918;2022-12-07T08:33:54;10.15;;;5.78;;
42338;SDS011;27993;45.392;10.918;2022-12-07T08:36:25;11.80;;;6.95;;
42338;SDS011;27993;45.392;10.918;2022-12-07T08:38:56;20.83;;;8.88;;
42338;SDS011;27993;45.392;10.918;2022-12-07T08:41:26;19.98;;;9.77;;
42338;SDS011;27993;45.392;10.918;2022-12-07T08:43:57;25.27;;;9.50;;
42338;SDS011;27993;45.392;10.918;2022-12-07T08:46:32;27.48;;;9.98;;
42338;SDS011;27993;45.392;10.918;2022-12-07T08:49:16;43.08;;;14.07;;
42338;SDS011;27993;45.392;10.918;2022-12-07T08:51:52;69.18;;;23.58;;
42338;SDS011;27993;45.392;10.918;2022-12-07T08:54:25;76.35;;;30.27;;
42338;SDS011;27993;45.392;10.918;2022-12-07T08:56:57;59.38;;;21.60;;
42338;SDS011;27993;45.392;10.918;2022-12-07T08:59:28;38.67;;;17.58;;
42338;SDS011;27993;45.392;10.918;2022-12-07T09:01:59;28.92;;;14.05;;
42338;SDS011;27993;45.392;10.918;2022-12-07T09:04:29;24.55;;;12.52;;
42338;SDS011;27993;45.392;10.918;2022-12-07T09:07:00;53.75;;;22.30;;
42338;SDS011;27993;45.392;10.918;2022-12-07T09:09:30;56.22;;;21.52;;
42338;SDS011;27993;45.392;10.918;2022-12-07T09:12:01;44.20;;;17.25;;
42338;SDS011;27993;45.392;10.918;2022-12-07T09:14:33;49.75;;;23.48;;
42338;SDS011;27993;45.392;10.918;2022-12-07T09:17:11;75.70;;;25.58;;
42338;SDS011;27993;45.392;10.918;2022-12-07T09:19:42;74.43;;;23.90;;
42338;SDS011;27993;45.392;10.918;2022-12-07T09:22:13;65.03;;;25.05;;
42338;SDS011;27993;45.392;10.918;2022-12-07T09:24:43;64.43;;;19.05;;
42338;SDS011;27993;45.392;10.918;2022-12-07T09:27:15;68.28;;;14.98;;
42338;SDS011;27993;45.392;10.918;2022-12-07T09:29:47;33.05;;;10.48;;
42338;SDS011;27993;45.392;10.918;2022-12-07T09:32:18;29.27;;;9.25;;
42338;SDS011;27993;45.392;10.918;2022-12-07T09:34:48;24.63;;;9.95;;
42338;SDS011;27993;45.392;10.918;2022-12-07T09:37:19;20.55;;;9.93;;
42338;SDS011;27993;45.392;10.918;2022-12-07T09:39:50;26.48;;;10.43;;
42338;SDS011;27993;45.392;10.918;2022-12-07T09:50:20;34.25;;;11.85;;
42338;SDS011;27993;45.392;10.918;2022-12-07T09:52:54;50.20;;;14.20;;
42338;SDS011;27993;45.392;10.918;2022-12-07T09:55:33;30.95;;;11.45;;
42338;SDS011;27993;45.392;10.918;2022-12-07T09:58:08;27.20;;;12.10;;
42338;SDS011;27993;45.392;10.918;2022-12-07T10:00:51;34.95;;;12.63;;
42338;SDS011;27993;45.392;10.918;2022-12-07T10:03:26;45.28;;;14.02;;
42338;SDS011;27993;45.392;10.918;2022-12-07T10:05:58;35.58;;;13.32;;
42338;SDS011;27993;45.392;10.918;2022-12-07T10:08:29;47.43;;;17.47;;
42338;SDS011;27993;45.392;10.918;2022-12-07T10:11:02;48.08;;;16.08;;
42338;SDS011;27993;45.392;10.918;2022-12-07T10:13:40;27.08;;;11.70;;
42338;SDS011;27993;45.392;10.918;2022-12-07T10:16:27;41.22;;;12.98;;
42338;SDS011;27993;45.392;10.918;2022-12-07T10:22:11;9.45;;;7.15;;
42338;SDS011;27993;45.392;10.918;2022-12-07T10:27:26;12.20;;;6.85;;
42338;SDS011;27993;45.392;10.918;2022-12-07T10:30:01;14.10;;;8.60;;
42338;SDS011;27993;45.392;10.918;2022-12-07T10:32:39;31.70;;;10.27;;
42338;SDS011;27993;45.392;10.918;2022-12-07T10:35:26;26.60;;;9.20;;
42338;SDS011;27993;45.392;10.918;2022-12-07T10:37:59;14.75;;;8.93;;
42338;SDS011;27993;45.392;10.918;2022-12-07T10:43:02;21.43;;;10.73;;
42338;SDS011;27993;45.392;10.918;2022-12-07T10:45:35;19.62;;;10.18;;
42338;SDS011;27993;45.392;10.918;2022-12-07T10:51:04;14.57;;;10.23;;
42338;SDS011;27993;45.392;10.918;2022-12-07T10:54:03;23.23;;;10.18;;
42338;SDS011;27993;45.392;10.918;2022-12-07T10:56:48;16.80;;;9.82;;
42338;SDS011;27993;45.392;10.918;2022-12-07T11:04:53;15.50;;;10.20;;
42338;SDS011;27993;45.392;10.918;2022-12-07T11:10:47;15.93;;;9.55;;
42338;SDS011;27993;45.392;10.918;2022-12-07T11:13:23;12.23;;;9.65;;
42338;SDS011;27993;45.392;10.918;2022-12-07T11:19:14;16.10;;;9.43;;
42338;SDS011;27993;45.392;10.918;2022-12-07T11:41:56;12.55;;;8.32;;
42338;SDS011;27993;45.392;10.918;2022-12-07T11:47:07;14.43;;;9.10;;
42338;SDS011;27993;45.392;10.918;2022-12-07T11:50:21;14.23;;;9.88;;
42338;SDS011;27993;45.392;10.918;2022-12-07T11:52:58;15.38;;;9.68;;
42338;SDS011;27993;45.392;10.918;2022-12-07T11:55:48;10.93;;;7.93;;
42338;SDS011;27993;45.392;10.918;2022-12-07T12:01:11;14.00;;;8.90;;
42338;SDS011;27993;45.392;10.918;2022-12-07T12:03:47;16.67;;;9.80;;
42338;SDS011;27993;45.392;10.918;2022-12-07T12:06:21;14.45;;;9.98;;
42338;SDS011;27993;45.392;10.918;2022-12-07T12:08:54;11.93;;;9.17;;
42338;SDS011;27993;45.392;10.918;2022-12-07T12:23:06;19.35;;;7.45;;
42338;SDS011;27993;45.392;10.918;2022-12-07T12:25:45;18.15;;;8.05;;
42338;SDS011;27993;45.392;10.918;2022-12-07T12:28:29;11.68;;;8.25;;
42338;SDS011;27993;45.392;10.918;2022-12-07T12:33:38;17.52;;;8.48;;
42338;SDS011;27993;45.392;10.918;2022-12-07T12:39:08;22.85;;;12.88;;
42338;SDS011;27993;45.392;10.918;2022-12-07T12:51:54;24.27;;;13.30;;
42338;SDS011;27993;45.392;10.918;2022-12-07T12:54:29;23.95;;;12.07;;
42338;SDS011;27993;45.392;10.918;2022-12-07T12:57:07;18.45;;;12.10;;
42338;SDS011;27993;45.392;10.918;2022-12-07T13:26:16;40.95;;;19.75;;
42338;SDS011;27993;45.392;10.918;2022-12-07T13:28:58;34.70;;;18.23;;
42338;SDS011;27993;45.392;10.918;2022-12-07T13:31:44;29.10;;;17.20;;
42338;SDS011;27993;45.392;10.918;2022-12-07T13:34:33;31.02;;;18.27;;
42338;SDS011;27993;45.392;10.918;2022-12-07T13:37:15;36.17;;;17.65;;
42338;SDS011;27993;45.392;10.918;2022-12-07T13:40:12;32.72;;;18.50;;
42338;SDS011;27993;45.392;10.918;2022-12-07T13:42:56;23.40;;;15.70;;
42338;SDS011;27993;45.392;10.918;2022-12-07T13:48:24;25.02;;;14.57;;
42338;SDS011;27993;45.392;10.918;2022-12-07T13:51:03;26.90;;;15.63;;
42338;SDS011;27993;45.392;10.918;2022-12-07T13:56:15;18.40;;;13.30;;
42338;SDS011;27993;45.392;10.918;2022-12-07T13:58:46;18.30;;;13.80;;
42338;SDS011;27993;45.392;10.918;2022-12-07T14:01:17;20.77;;;14.73;;
42338;SDS011;27993;45.392;10.918;2022-12-07T14:03:48;20.25;;;14.87;;
42338;SDS011;27993;45.392;10.918;2022-12-07T14:09:08;26.35;;;15.13;;
42338;SDS011;27993;45.392;10.918;2022-12-07T14:11:47;29.80;;;15.52;;
42338;SDS011;27993;45.392;10.918;2022-12-07T14:14:21;26.20;;;16.23;;
42338;SDS011;27993;45.392;10.918;2022-12-07T14:16:55;24.35;;;16.08;;
42338;SDS011;27993;45.392;10.918;2022-12-07T14:19:39;27.25;;;16.37;;
42338;SDS011;27993;45.392;10.918;2022-12-07T14:22:19;22.70;;;14.98;;
42338;SDS011;27993;45.392;10.918;2022-12-07T14:25:15;25.45;;;15.02;;
42338;SDS011;27993;45.392;10.918;2022-12-07T14:30:30;21.25;;;15.18;;
42338;SDS011;27993;45.392;10.918;2022-12-07T14:33:04;26.98;;;16.87;;
42338;SDS011;27993;45.392;10.918;2022-12-07T14:35:37;29.25;;;16.60;;
42338;SDS011;27993;45.392;10.918;2022-12-07T14:38:10;27.80;;;19.00;;
42338;SDS011;27993;45.392;10.918;2022-12-07T14:40:41;28.30;;;17.33;;
42338;SDS011;27993;45.392;10.918;2022-12-07T14:43:12;27.90;;;18.63;;
42338;SDS011;27993;45.392;10.918;2022-12-07T14:45:44;27.77;;;17.35;;
42338;SDS011;27993;45.392;10.918;2022-12-07T14:48:15;27.43;;;19.17;;
42338;SDS011;27993;45.392;10.918;2022-12-07T14:50:49;25.80;;;17.27;;
42338;SDS011;27993;45.392;10.918;2022-12-07T14:53:21;29.23;;;17.90;;
42338;SDS011;27993;45.392;10.918;2022-12-07T14:55:59;32.45;;;18.08;;
42338;SDS011;27993;45.392;10.918;2022-12-07T14:58:30;27.93;;;18.50;;
42338;SDS011;27993;45.392;10.918;2022-12-07T15:01:00;37.60;;;22.60;;
42338;SDS011;27993;45.392;10.918;2022-12-07T15:03:31;28.97;;;19.57;;
42338;SDS011;27993;45.392;10.918;2022-12-07T15:06:04;33.67;;;19.87;;
42338;SDS011;27993;45.392;10.918;2022-12-07T15:08:36;33.55;;;20.17;;
42338;SDS011;27993;45.392;10.918;2022-12-07T15:11:09;32.10;;;19.80;;
42338;SDS011;27993;45.392;10.918;2022-12-07T15:13:42;30.30;;;19.75;;
42338;SDS011;27993;45.392;10.918;2022-12-07T15:16:31;33.17;;;22.37;;
42338;SDS011;27993;45.392;10.918;2022-12-07T15:19:02;27.57;;;18.83;;
42338;SDS011;27993;45.392;10.918;2022-12-07T15:21:32;36.43;;;21.87;;
42338;SDS011;27993;45.392;10.918;2022-12-07T15:24:03;25.47;;;17.67;;
42338;SDS011;27993;45.392;10.918;2022-12-07T15:26:34;25.60;;;16.27;;
42338;SDS011;27993;45.392;10.918;2022-12-07T15:29:05;30.90;;;17.80;;
42338;SDS011;27993;45.392;10.918;2022-12-07T15:31:36;24.65;;;17.50;;
42338;SDS011;27993;45.392;10.918;2022-12-07T15:34:07;29.10;;;20.02;;
42338;SDS011;27993;45.392;10.918;2022-12-07T15:36:38;28.23;;;18.23;;
42338;SDS011;27993;45.392;10.918;2022-12-07T15:39:09;33.28;;;20.17;;
42338;SDS011;27993;45.392;10.918;2022-12-07T15:41:40;28.60;;;18.12;;
42338;SDS011;27993;45.392;10.918;2022-12-07T15:44:13;27.90;;;18.53;;
42338;SDS011;27993;45.392;10.918;2022-12-07T15:47:04;29.23;;;18.83;;
42338;SDS011;27993;45.392;10.918;2022-12-07T15:49:35;45.33;;;19.73;;
42338;SDS011;27993;45.392;10.918;2022-12-07T15:52:05;23.05;;;16.80;;
42338;SDS011;27993;45.392;10.918;2022-12-07T15:54:36;27.90;;;17.20;;
42338;SDS011;27993;45.392;10.918;2022-12-07T15:57:07;28.35;;;18.37;;
42338;SDS011;27993;45.392;10.918;2022-12-07T15:59:37;36.33;;;19.90;;
42338;SDS011;27993;45.392;10.918;2022-12-07T16:02:09;38.97;;;21.10;;
42338;SDS011;27993;45.392;10.918;2022-12-07T16:07:10;32.15;;;19.45;;
42338;SDS011;27993;45.392;10.918;2022-12-07T16:09:42;50.27;;;21.10;;
42338;SDS011;27993;45.392;10.918;2022-12-07T16:12:13;33.95;;;19.60;;
42338;SDS011;27993;45.392;10.918;2022-12-07T16:14:43;38.95;;;18.98;;
42338;SDS011;27993;45.392;10.918;2022-12-07T16:17:14;41.03;;;20.45;;
42338;SDS011;27993;45.392;10.918;2022-12-07T16:19:45;37.13;;;21.33;;
42338;SDS011;27993;45.392;10.918;2022-12-07T16:22:15;35.28;;;20.15;;
42338;SDS011;27993;45.392;10.918;2022-12-07T16:24:46;33.78;;;20.48;;
42338;SDS011;27993;45.392;10.918;2022-12-07T16:27:17;35.17;;;19.67;;
42338;SDS011;27993;45.392;10.918;2022-12-07T16:29:47;44.03;;;27.37;;
42338;SDS011;27993;45.392;10.918;2022-12-07T16:32:18;41.50;;;23.30;;
42338;SDS011;27993;45.392;10.918;2022-12-07T16:34:48;46.22;;;24.98;;
42338;SDS011;27993;45.392;10.918;2022-12-07T16:37:19;46.85;;;26.42;;
42338;SDS011;27993;45.392;10.918;2022-12-07T16:39:49;44.83;;;25.10;;
42338;SDS011;27993;45.392;10.918;2022-12-07T16:42:20;49.83;;;23.40;;
42338;SDS011;27993;45.392;10.918;2022-12-07T16:44:51;41.85;;;23.48;;
42338;SDS011;27993;45.392;10.918;2022-12-07T16:47:21;53.63;;;21.50;;
42338;SDS011;27993;45.392;10.918;2022-12-07T16:49:52;37.25;;;20.60;;
42338;SDS011;27993;45.392;10.918;2022-12-07T16:52:23;33.42;;;19.37;;
42338;SDS011;27993;45.392;10.918;2022-12-07T16:54:53;36.15;;;19.95;;
42338;SDS011;27993;45.392;10.918;2022-12-07T16:57:24;33.03;;;21.58;;
42338;SDS011;27993;45.392;10.918;2022-12-07T16:59:55;50.10;;;28.42;;
42338;SDS011;27993;45.392;10.918;2022-12-07T17:02:25;38.78;;;21.33;;
42338;SDS011;27993;45.392;10.918;2022-12-07T17:04:56;35.72;;;22.05;;
42338;SDS011;27993;45.392;10.918;2022-12-07T17:07:26;28.77;;;18.80;;
42338;SDS011;27993;45.392;10.918;2022-12-07T17:09:57;37.55;;;21.25;;
42338;SDS011;27993;45.392;10.918;2022-12-07T17:12:28;39.70;;;21.00;;
42338;SDS011;27993;45.392;10.918;2022-12-07T17:14:58;36.03;;;21.87;;
42338;SDS011;27993;45.392;10.918;2022-12-07T17:17:52;37.40;;;22.05;;
42338;SDS011;27993;45.392;10.918;2022-12-07T17:20:26;41.75;;;23.05;;
42338;SDS011;27993;45.392;10.918;2022-12-07T17:22:57;53.75;;;24.00;;
42338;SDS011;27993;45.392;10.918;2022-12-07T17:25:28;42.95;;;21.58;;
42338;SDS011;27993;45.392;10.918;2022-12-07T17:27:58;36.30;;;20.80;;
42338;SDS011;27993;45.392;10.918;2022-12-07T17:30:29;42.97;;;21.70;;
42338;SDS011;27993;45.392;10.918;2022-12-07T17:32:59;40.15;;;19.60;;